Time;durP1;ratioP1;P1;durP2;ratioP2;P2;SDS_P1;SDS_P2;PMS_P1;PMS_P2;Temp;Humidity;BMP_temperature;BMP_pressure;BME280_temperature;BME280_humidity;BME280_pressure;Samples;Min_cycle;Max_cycle;Signal;HPM_P1;HPM_P2
2022/02/06 00:02:07;;;;;;;12.70;4.67;;;;;;;;;;780265;177;919398;-67
2022/02/06 00:04:34;;;;;;;10.93;4.33;;;;;;;;;;776805;177;923944;-69
2022/02/06 00:06:58;;;;;;;3.10;2.40;;;;;;;;;;772777;179;918773;-67
2022/02/06 00:09:24;;;;;;;8.30;3.10;;;;;;;;;;777209;180;918673;-66
2022/02/06 00:11:50;;;;;;;6.33;3.37;;;;;;;;;;766724;181;919997;-66
2022/02/06 00:14:16;;;;;;;4.97;3.90;;;;;;;;;;773963;177;919091;-67
2022/02/06 00:16:42;;;;;;;7.77;2.90;;;;;;;;;;779635;177;1011327;-66
2022/02/06 00:19:07;;;;;;;5.10;2.20;;;;;;;;;;771768;177;919972;-65
2022/02/06 00:21:35;;;;;;;7.03;4.40;;;;;;;;;;772056;177;919749;-65
2022/02/06 00:24:00;;;;;;;7.30;3.43;;;;;;;;;;758823;184;919412;-66
2022/02/06 00:26:37;;;;;;;8.57;3.73;;;;;;;;;;761882;181;918627;-65
2022/02/06 00:29:10;;;;;;;9.20;4.10;;;;;;;;;;767304;180;919071;-65
2022/02/06 00:31:45;;;;;;;7.67;3.40;;;;;;;;;;766494;180;919626;-65
2022/02/06 00:34:31;;;;;;;6.53;4.00;;;;;;;;;;766749;179;1021036;-65
2022/02/06 00:39:04;;;;;;;8.20;3.20;;;;;;;;;;769872;181;918482;-66
2022/02/06 00:41:29;;;;;;;5.83;3.30;;;;;;;;;;768524;180;919287;-64
2022/02/06 00:43:53;;;;;;;8.77;3.67;;;;;;;;;;768216;179;915362;-63
2022/02/06 00:46:20;;;;;;;9.60;4.17;;;;;;;;;;780683;180;918781;-64
2022/02/06 00:48:50;;;;;;;11.63;3.73;;;;;;;;;;777263;177;921181;-65
2022/02/06 00:51:32;;;;;;;8.63;4.77;;;;;;;;;;776544;178;915079;-65
2022/02/06 00:53:51;;;;;;;7.63;4.93;;;;;;;;;;757518;184;914070;-67
2022/02/06 00:56:17;;;;;;;4.67;2.90;;;;;;;;;;777190;178;914025;-65
2022/02/06 00:58:43;;;;;;;4.73;3.13;;;;;;;;;;774203;179;914355;-65
2022/02/06 01:01:08;;;;;;;7.00;3.83;;;;;;;;;;775320;178;913167;-67
2022/02/06 01:03:34;;;;;;;6.47;3.40;;;;;;;;;;774155;180;911913;-65
2022/02/06 01:06:00;;;;;;;9.90;3.10;;;;;;;;;;768214;178;920538;-65
2022/02/06 01:08:26;;;;;;;6.07;2.87;;;;;;;;;;769592;180;916065;-64
2022/02/06 01:10:52;;;;;;;10.33;3.60;;;;;;;;;;770495;180;919007;-65
2022/02/06 01:13:27;;;;;;;5.87;2.80;;;;;;;;;;772548;181;947606;-65
2022/02/06 01:16:00;;;;;;;3.25;1.98;;;;;;;;;;763024;181;920417;-64
2022/02/06 01:18:27;;;;;;;8.30;3.30;;;;;;;;;;773808;180;920237;-65
2022/02/06 01:20:56;;;;;;;3.63;1.57;;;;;;;;;;767094;180;917899;-65
2022/02/06 01:23:28;;;;;;;5.40;2.60;;;;;;;;;;754327;185;985227;-64
2022/02/06 01:25:58;;;;;;;7.20;2.97;;;;;;;;;;760023;181;917442;-64
2022/02/06 01:28:25;;;;;;;4.67;2.83;;;;;;;;;;756223;182;921756;-65
2022/02/06 01:30:52;;;;;;;3.70;2.20;;;;;;;;;;771999;177;920312;-65
2022/02/06 01:33:16;;;;;;;4.37;2.83;;;;;;;;;;772120;180;919041;-66
2022/02/06 01:35:50;;;;;;;4.70;2.40;;;;;;;;;;770812;179;919178;-66
2022/02/06 01:38:17;;;;;;;8.97;3.20;;;;;;;;;;771223;177;918535;-66
2022/02/06 01:40:43;;;;;;;3.60;2.13;;;;;;;;;;779565;179;919793;-65
2022/02/06 01:43:08;;;;;;;4.20;2.50;;;;;;;;;;767648;181;918971;-66
2022/02/06 01:45:53;;;;;;;4.80;2.30;;;;;;;;;;763875;180;916794;-67
2022/02/06 02:03:35;;;;;;;10.30;2.77;;;;;;;;;;773925;178;918574;-66
2022/02/06 02:07:17;;;;;;;6.67;3.27;;;;;;;;;;777033;180;919280;-65
2022/02/06 02:08:58;;;;;;;4.80;2.73;;;;;;;;;;772816;181;919506;-65
2022/02/06 02:11:29;;;;;;;6.17;2.53;;;;;;;;;;781593;180;714011;-65
2022/02/06 02:13:57;;;;;;;11.30;2.57;;;;;;;;;;763468;181;918351;-65
2022/02/06 02:17:29;;;;;;;3.57;2.20;;;;;;;;;;772820;180;1022100;-65
2022/02/06 02:19:21;;;;;;;4.43;2.60;;;;;;;;;;767315;181;919643;-65
2022/02/06 02:24:21;;;;;;;14.27;2.33;;;;;;;;;;773176;180;918847;-64
2022/02/06 02:26:50;;;;;;;3.30;1.63;;;;;;;;;;768733;180;918109;-65
2022/02/06 02:29:53;;;;;;;5.57;2.33;;;;;;;;;;770640;180;919311;-64
2022/02/06 02:47:21;;;;;;;6.07;3.13;;;;;;;;;;765466;180;915444;-62
2022/02/06 02:49:55;;;;;;;3.83;2.50;;;;;;;;;;763243;184;919622;-62
2022/02/06 02:52:31;;;;;;;60.23;8.17;;;;;;;;;;766871;178;918561;-62
2022/02/06 02:54:49;;;;;;;5.10;2.70;;;;;;;;;;766483;180;919570;-62
2022/02/06 02:57:23;;;;;;;4.27;2.23;;;;;;;;;;778491;178;919360;-66
2022/02/06 03:02:23;;;;;;;4.73;2.73;;;;;;;;;;779818;179;918942;-61
2022/02/06 03:04:53;;;;;;;4.63;2.53;;;;;;;;;;780858;179;920166;-61
2022/02/06 03:07:14;;;;;;;4.93;2.43;;;;;;;;;;775809;177;920402;-61
2022/02/06 03:09:43;;;;;;;3.40;2.00;;;;;;;;;;781290;179;919193;-61
2022/02/06 03:12:07;;;;;;;5.20;2.90;;;;;;;;;;771120;178;1021269;-61
2022/02/06 03:14:44;;;;;;;6.33;2.57;;;;;;;;;;771982;178;1022175;-61
2022/02/06 03:17:05;;;;;;;5.60;2.20;;;;;;;;;;774159;180;919371;-60
2022/02/06 03:19:39;;;;;;;7.53;2.90;;;;;;;;;;775985;180;918358;-60
2022/02/06 03:21:57;;;;;;;3.07;2.17;;;;;;;;;;773442;180;919562;-61
2022/02/06 03:24:24;;;;;;;4.60;2.60;;;;;;;;;;777416;177;918321;-61
2022/02/06 03:26:48;;;;;;;5.23;2.07;;;;;;;;;;780229;180;919518;-61
2022/02/06 03:29:14;;;;;;;9.30;4.73;;;;;;;;;;762588;181;919445;-61
2022/02/06 03:31:40;;;;;;;4.28;2.40;;;;;;;;;;772601;178;919012;-61
2022/02/06 03:34:06;;;;;;;2.90;1.90;;;;;;;;;;779630;179;918048;-60
2022/02/06 03:36:31;;;;;;;4.93;2.60;;;;;;;;;;769122;177;919245;-63
2022/02/06 03:38:57;;;;;;;3.53;2.50;;;;;;;;;;774153;180;920378;-60
2022/02/06 03:41:24;;;;;;;3.50;2.40;;;;;;;;;;774829;179;919641;-60
2022/02/06 03:44:02;;;;;;;5.97;2.60;;;;;;;;;;763966;181;919074;-63
2022/02/06 03:46:27;;;;;;;5.40;2.57;;;;;;;;;;772467;180;919264;-61
2022/02/06 03:48:51;;;;;;;18.10;3.10;;;;;;;;;;772708;180;919513;-61
2022/02/06 03:51:21;;;;;;;7.30;2.80;;;;;;;;;;777877;180;919958;-60
2022/02/06 03:53:48;;;;;;;5.05;2.90;;;;;;;;;;773140;178;919193;-61
2022/02/06 03:56:13;;;;;;;4.80;2.37;;;;;;;;;;768285;180;919602;-60
2022/02/06 03:58:39;;;;;;;3.43;2.30;;;;;;;;;;772512;180;919434;-60
2022/02/06 04:01:05;;;;;;;3.67;2.43;;;;;;;;;;776445;180;1020887;-60
2022/02/06 04:03:31;;;;;;;14.63;2.50;;;;;;;;;;764284;181;920233;-60
2022/02/06 04:05:56;;;;;;;7.10;2.23;;;;;;;;;;774437;180;918779;-60
2022/02/06 04:08:22;;;;;;;3.30;2.10;;;;;;;;;;781695;180;918829;-61
2022/02/06 04:10:51;;;;;;;11.53;2.80;;;;;;;;;;771966;178;919481;-59
2022/02/06 04:13:18;;;;;;;9.20;3.20;;;;;;;;;;772659;180;922755;-64
2022/02/06 04:15:42;;;;;;;6.30;2.73;;;;;;;;;;763631;180;919222;-60
2022/02/06 04:18:15;;;;;;;5.80;2.93;;;;;;;;;;772800;179;918606;-61
2022/02/06 04:20:37;;;;;;;6.10;2.53;;;;;;;;;;772215;177;922666;-60
2022/02/06 04:23:03;;;;;;;11.57;2.80;;;;;;;;;;774391;179;920187;-60
2022/02/06 04:25:29;;;;;;;4.27;2.17;;;;;;;;;;779737;180;919968;-61
2022/02/06 04:27:55;;;;;;;5.40;3.00;;;;;;;;;;774095;180;918802;-60
2022/02/06 04:30:20;;;;;;;7.17;2.97;;;;;;;;;;772264;180;919306;-61
2022/02/06 04:32:46;;;;;;;8.93;2.40;;;;;;;;;;765674;178;919504;-60
2022/02/06 04:35:17;;;;;;;6.00;2.50;;;;;;;;;;778391;180;917184;-60
2022/02/06 04:37:51;;;;;;;5.30;2.67;;;;;;;;;;773142;178;919390;-61
2022/02/06 04:40:36;;;;;;;8.75;3.03;;;;;;;;;;767349;180;919061;-60
2022/02/06 04:43:11;;;;;;;5.03;2.77;;;;;;;;;;761396;179;919852;-61
2022/02/06 04:54:54;;;;;;;3.40;2.40;;;;;;;;;;758849;184;919308;-61
2022/02/06 05:14:31;;;;;;;3.30;2.23;;;;;;;;;;775060;179;919477;-62
2022/02/06 05:17:10;;;;;;;9.10;2.93;;;;;;;;;;779773;178;915081;-60
2022/02/06 05:25:20;;;;;;;7.50;2.93;;;;;;;;;;773478;178;919349;-61
2022/02/06 05:27:24;;;;;;;3.63;2.13;;;;;;;;;;773467;178;916045;-60
2022/02/06 05:30:02;;;;;;;6.20;2.97;;;;;;;;;;767331;181;922342;-61
2022/02/06 05:32:33;;;;;;;9.33;2.30;;;;;;;;;;772789;177;918882;-60
2022/02/06 05:34:48;;;;;;;6.90;2.80;;;;;;;;;;769879;181;914865;-61
2022/02/06 05:37:14;;;;;;;6.30;2.33;;;;;;;;;;766529;179;918956;-61
2022/02/06 05:39:40;;;;;;;5.43;2.73;;;;;;;;;;776097;178;915591;-62
2022/02/06 05:42:06;;;;;;;5.10;2.23;;;;;;;;;;772946;181;915935;-61
2022/02/06 05:44:32;;;;;;;3.83;2.43;;;;;;;;;;772163;180;919280;-61
2022/02/06 05:46:58;;;;;;;5.50;2.43;;;;;;;;;;774739;180;919508;-61
2022/02/06 05:49:23;;;;;;;3.83;2.62;;;;;;;;;;775433;180;920607;-61
2022/02/06 05:51:49;;;;;;;4.20;2.27;;;;;;;;;;769329;180;1737652;-61
2022/02/06 05:54:15;;;;;;;11.87;3.00;;;;;;;;;;769253;181;919536;-60
2022/02/06 05:56:41;;;;;;;5.93;2.90;;;;;;;;;;773312;180;919690;-60
2022/02/06 05:59:07;;;;;;;8.37;3.03;;;;;;;;;;776461;179;919525;-61
2022/02/06 06:01:33;;;;;;;7.43;2.50;;;;;;;;;;764285;182;919442;-60
2022/02/06 06:03:58;;;;;;;5.87;2.53;;;;;;;;;;773820;180;919220;-60
2022/02/06 06:06:24;;;;;;;3.80;2.50;;;;;;;;;;767979;180;919106;-60
2022/02/06 06:08:50;;;;;;;9.27;2.30;;;;;;;;;;772237;179;919377;-60
2022/02/06 06:11:16;;;;;;;3.65;2.60;;;;;;;;;;763861;180;988267;-61
2022/02/06 06:13:42;;;;;;;4.90;2.87;;;;;;;;;;778494;180;918812;-61
2022/02/06 06:16:08;;;;;;;6.00;3.30;;;;;;;;;;773298;179;920031;-61
2022/02/06 06:18:34;;;;;;;3.63;2.70;;;;;;;;;;772005;178;918931;-60
2022/02/06 06:21:01;;;;;;;7.60;4.07;;;;;;;;;;766474;181;937164;-61
2022/02/06 06:23:25;;;;;;;8.80;2.30;;;;;;;;;;766088;181;919075;-61
2022/02/06 06:25:52;;;;;;;10.30;2.40;;;;;;;;;;773135;181;919518;-63
2022/02/06 06:28:17;;;;;;;5.70;3.00;;;;;;;;;;770141;178;919041;-60
2022/02/06 06:30:43;;;;;;;8.77;3.00;;;;;;;;;;779283;180;920435;-60
2022/02/06 06:33:09;;;;;;;3.80;2.07;;;;;;;;;;777334;178;921129;-61
2022/02/06 06:35:35;;;;;;;5.50;2.20;;;;;;;;;;772813;179;920727;-61
2022/02/06 06:38:02;;;;;;;6.07;2.20;;;;;;;;;;782773;179;915690;-60
2022/02/06 06:40:26;;;;;;;5.00;2.30;;;;;;;;;;763076;180;916781;-60
2022/02/06 06:42:52;;;;;;;8.03;3.00;;;;;;;;;;776134;177;919321;-61
2022/02/06 06:45:18;;;;;;;4.15;2.15;;;;;;;;;;774947;180;920291;-59
2022/02/06 06:47:51;;;;;;;6.40;2.43;;;;;;;;;;775539;180;918954;-60
2022/02/06 06:50:16;;;;;;;3.13;1.63;;;;;;;;;;775740;177;919826;-60
2022/02/06 06:52:42;;;;;;;4.60;2.45;;;;;;;;;;774861;179;919966;-60
2022/02/06 06:55:08;;;;;;;6.97;2.73;;;;;;;;;;779594;180;919885;-60
2022/02/06 06:57:40;;;;;;;3.37;2.20;;;;;;;;;;762316;181;919629;-60
2022/02/06 07:00:20;;;;;;;4.23;2.00;;;;;;;;;;772306;177;919914;-60
2022/02/06 07:02:34;;;;;;;4.67;2.67;;;;;;;;;;761764;182;919487;-60
2022/02/06 07:05:02;;;;;;;5.37;2.60;;;;;;;;;;778612;180;919366;-60
2022/02/06 07:07:25;;;;;;;9.57;2.70;;;;;;;;;;775717;180;919720;-61
2022/02/06 07:09:51;;;;;;;4.00;2.77;;;;;;;;;;764781;179;919585;-63
2022/02/06 07:12:17;;;;;;;4.80;2.30;;;;;;;;;;775505;179;919630;-60
2022/02/06 07:14:43;;;;;;;5.00;2.30;;;;;;;;;;766197;179;919549;-60
2022/02/06 07:17:09;;;;;;;9.63;2.60;;;;;;;;;;769492;181;920270;-61
2022/02/06 07:19:35;;;;;;;3.90;2.20;;;;;;;;;;769215;181;919642;-59
2022/02/06 07:22:01;;;;;;;4.27;2.60;;;;;;;;;;764441;180;918836;-61
2022/02/06 07:24:27;;;;;;;3.83;1.90;;;;;;;;;;762451;180;921660;-61
2022/02/06 07:26:55;;;;;;;8.48;2.50;;;;;;;;;;774003;180;920163;-61
2022/02/06 07:29:18;;;;;;;4.50;2.13;;;;;;;;;;779265;180;918717;-62
2022/02/06 07:31:46;;;;;;;5.87;3.03;;;;;;;;;;768717;177;923026;-62
2022/02/06 07:34:10;;;;;;;8.17;2.60;;;;;;;;;;769051;178;918593;-62
2022/02/06 07:36:36;;;;;;;7.43;2.70;;;;;;;;;;771231;180;919054;-62
2022/02/06 07:39:02;;;;;;;6.40;2.57;;;;;;;;;;774984;178;918584;-62
2022/02/06 07:41:27;;;;;;;4.53;2.70;;;;;;;;;;775170;177;919006;-63
2022/02/06 07:43:53;;;;;;;5.80;2.53;;;;;;;;;;776267;179;901914;-63
2022/02/06 07:46:23;;;;;;;6.63;2.67;;;;;;;;;;774682;180;919674;-63
2022/02/06 07:48:45;;;;;;;6.00;2.80;;;;;;;;;;776280;177;919395;-63
2022/02/06 07:51:11;;;;;;;3.90;1.97;;;;;;;;;;773957;180;918762;-63
2022/02/06 07:53:36;;;;;;;6.53;2.27;;;;;;;;;;775465;180;919286;-63
2022/02/06 07:56:02;;;;;;;8.33;2.43;;;;;;;;;;767594;178;919007;-62
2022/02/06 07:58:28;;;;;;;4.00;2.30;;;;;;;;;;776909;177;1020356;-63
2022/02/06 08:00:54;;;;;;;9.50;2.77;;;;;;;;;;778892;178;917867;-63
2022/02/06 08:03:20;;;;;;;8.23;2.77;;;;;;;;;;772488;179;919021;-63
2022/02/06 08:05:46;;;;;;;4.03;2.50;;;;;;;;;;772037;180;981951;-63
2022/02/06 08:08:14;;;;;;;4.37;2.70;;;;;;;;;;773537;180;914291;-63
2022/02/06 08:10:37;;;;;;;5.17;2.00;;;;;;;;;;764686;178;919070;-62
2022/02/06 08:13:22;;;;;;;6.53;2.90;;;;;;;;;;772124;181;919277;-64
2022/02/06 08:15:37;;;;;;;4.60;2.60;;;;;;;;;;770724;178;919079;-64
2022/02/06 08:18:03;;;;;;;7.50;2.77;;;;;;;;;;764983;184;916163;-63
2022/02/06 08:20:29;;;;;;;4.57;2.23;;;;;;;;;;767950;180;915850;-63
2022/02/06 08:22:54;;;;;;;7.67;2.70;;;;;;;;;;766755;181;916351;-63
2022/02/06 08:25:20;;;;;;;5.32;3.12;;;;;;;;;;776155;178;1018787;-62
2022/02/06 08:27:46;;;;;;;5.77;2.50;;;;;;;;;;768878;181;924558;-64
2022/02/06 08:30:13;;;;;;;8.70;2.40;;;;;;;;;;773371;180;917954;-63
2022/02/06 08:32:38;;;;;;;5.07;2.63;;;;;;;;;;769754;178;1156797;-64
2022/02/06 08:35:06;;;;;;;4.20;2.20;;;;;;;;;;768847;181;919435;-63
2022/02/06 08:37:30;;;;;;;6.97;2.20;;;;;;;;;;771229;181;921033;-63
2022/02/06 08:39:56;;;;;;;10.23;2.80;;;;;;;;;;774471;180;921110;-64
2022/02/06 08:42:22;;;;;;;4.12;2.35;;;;;;;;;;777052;179;1019482;-63
2022/02/06 08:44:48;;;;;;;3.20;2.50;;;;;;;;;;775107;180;919679;-64
2022/02/06 08:47:14;;;;;;;7.43;2.93;;;;;;;;;;772307;177;920128;-63
2022/02/06 08:49:40;;;;;;;4.13;2.40;;;;;;;;;;765159;184;919915;-63
2022/02/06 08:52:07;;;;;;;6.73;2.43;;;;;;;;;;757705;181;918331;-63
2022/02/06 08:54:34;;;;;;;3.97;2.10;;;;;;;;;;765030;180;919217;-63
2022/02/06 08:57:01;;;;;;;9.20;2.37;;;;;;;;;;774494;180;936576;-63
2022/02/06 08:59:24;;;;;;;5.50;3.40;;;;;;;;;;778973;178;920199;-64
2022/02/06 09:01:50;;;;;;;7.73;2.77;;;;;;;;;;775057;179;920566;-62
2022/02/06 09:04:16;;;;;;;6.83;3.23;;;;;;;;;;764777;180;922063;-62
2022/02/06 09:06:42;;;;;;;8.30;2.60;;;;;;;;;;777355;177;920662;-63
2022/02/06 09:09:09;;;;;;;7.37;2.30;;;;;;;;;;770597;180;917297;-64
2022/02/06 09:11:33;;;;;;;18.33;4.00;;;;;;;;;;763350;181;921930;-63
2022/02/06 09:14:00;;;;;;;4.87;2.70;;;;;;;;;;779613;181;918468;-63
2022/02/06 09:16:26;;;;;;;8.20;3.10;;;;;;;;;;774489;177;920192;-63
2022/02/06 09:18:52;;;;;;;4.43;2.93;;;;;;;;;;771212;180;919072;-62
2022/02/06 09:21:20;;;;;;;9.73;4.07;;;;;;;;;;771234;179;916129;-61
2022/02/06 09:23:43;;;;;;;6.90;3.03;;;;;;;;;;770945;182;918369;-62
2022/02/06 09:26:09;;;;;;;5.30;2.57;;;;;;;;;;774158;178;913443;-61
2022/02/06 09:28:35;;;;;;;5.82;2.30;;;;;;;;;;771280;178;915710;-62
2022/02/06 09:31:01;;;;;;;6.60;2.30;;;;;;;;;;776976;181;919493;-61
2022/02/06 09:35:52;;;;;;;4.77;3.00;;;;;;;;;;773766;177;915771;-62
2022/02/06 09:38:18;;;;;;;5.40;3.20;;;;;;;;;;778752;180;614996;-61
2022/02/06 09:40:44;;;;;;;4.13;2.47;;;;;;;;;;777256;180;689906;-64
2022/02/06 09:43:10;;;;;;;5.07;2.47;;;;;;;;;;776707;178;617175;-64
2022/02/06 09:45:38;;;;;;;6.80;3.30;;;;;;;;;;778501;180;623493;-61
2022/02/06 09:48:02;;;;;;;5.40;2.50;;;;;;;;;;770246;181;751404;-63
2022/02/06 09:50:29;;;;;;;5.55;2.75;;;;;;;;;;772239;178;919110;-64
2022/02/06 09:52:54;;;;;;;3.97;2.07;;;;;;;;;;771704;177;919312;-64
2022/02/06 09:55:20;;;;;;;5.13;2.50;;;;;;;;;;778801;177;919102;-63
2022/02/06 10:00:17;;;;;;;11.73;3.40;;;;;;;;;;771011;180;919872;-63
2022/02/06 10:02:47;;;;;;;11.57;2.80;;;;;;;;;;776262;181;918697;-64
2022/02/06 10:05:09;;;;;;;4.40;2.07;;;;;;;;;;770079;181;919908;-62
2022/02/06 10:07:41;;;;;;;6.37;2.63;;;;;;;;;;771022;178;918884;-63
2022/02/06 10:10:04;;;;;;;4.83;2.07;;;;;;;;;;770636;181;918867;-61
2022/02/06 10:12:37;;;;;;;6.37;2.77;;;;;;;;;;779055;177;920043;-61
2022/02/06 10:15:03;;;;;;;3.30;1.83;;;;;;;;;;776103;180;919302;-62
2022/02/06 10:17:29;;;;;;;8.20;3.13;;;;;;;;;;774555;180;921037;-63
2022/02/06 10:19:55;;;;;;;4.07;2.30;;;;;;;;;;772848;180;919707;-63
2022/02/06 10:22:23;;;;;;;6.47;3.13;;;;;;;;;;777756;179;919919;-63
2022/02/06 10:24:47;;;;;;;6.17;2.90;;;;;;;;;;773667;180;919013;-64
2022/02/06 10:27:20;;;;;;;6.97;3.47;;;;;;;;;;773382;177;924895;-64
2022/02/06 10:29:42;;;;;;;9.20;3.47;;;;;;;;;;774307;178;918841;-64
2022/02/06 10:32:05;;;;;;;7.00;3.10;;;;;;;;;;774768;177;813223;-64
2022/02/06 10:34:33;;;;;;;5.47;2.67;;;;;;;;;;756836;183;918424;-64
2022/02/06 10:37:15;;;;;;;4.05;2.65;;;;;;;;;;768656;180;956900;-62
2022/02/06 10:39:46;;;;;;;8.00;3.17;;;;;;;;;;767583;180;918932;-63
2022/02/06 10:42:18;;;;;;;5.67;2.10;;;;;;;;;;770096;181;918844;-63
2022/02/06 10:44:44;;;;;;;3.77;2.13;;;;;;;;;;775614;179;919232;-63
2022/02/06 10:47:10;;;;;;;5.40;2.53;;;;;;;;;;773506;180;919584;-63
2022/02/06 10:49:36;;;;;;;5.73;2.90;;;;;;;;;;779391;180;919006;-64
2022/02/06 10:52:02;;;;;;;5.70;2.40;;;;;;;;;;771556;181;919388;-64
2022/02/06 10:54:37;;;;;;;4.60;2.57;;;;;;;;;;764130;180;919066;-63
2022/02/06 10:57:18;;;;;;;4.32;2.30;;;;;;;;;;770496;180;1028702;-62
2022/02/06 10:59:46;;;;;;;5.80;2.87;;;;;;;;;;771882;180;919846;-62
2022/02/06 11:02:15;;;;;;;6.63;2.87;;;;;;;;;;775903;179;919574;-61
2022/02/06 11:04:44;;;;;;;5.87;3.20;;;;;;;;;;763937;180;937439;-63
2022/02/06 11:07:12;;;;;;;4.67;2.13;;;;;;;;;;770261;181;919274;-64
2022/02/06 11:09:36;;;;;;;5.27;2.60;;;;;;;;;;773051;178;911961;-63
2022/02/06 11:12:04;;;;;;;6.63;2.50;;;;;;;;;;767668;180;610349;-63
2022/02/06 11:14:31;;;;;;;8.17;3.10;;;;;;;;;;770108;178;918659;-62
2022/02/06 11:16:56;;;;;;;8.47;3.13;;;;;;;;;;768271;180;918768;-62
2022/02/06 11:19:21;;;;;;;4.40;2.80;;;;;;;;;;776341;180;918889;-62
2022/02/06 11:21:47;;;;;;;4.60;2.20;;;;;;;;;;771096;179;919261;-64
2022/02/06 11:24:17;;;;;;;8.70;2.37;;;;;;;;;;772835;180;920499;-62
2022/02/06 11:26:43;;;;;;;4.73;2.80;;;;;;;;;;774050;180;919642;-63
2022/02/06 11:29:10;;;;;;;6.17;2.63;;;;;;;;;;779222;178;918914;-61
2022/02/06 11:31:35;;;;;;;6.30;2.50;;;;;;;;;;756415;182;983866;-62
2022/02/06 11:34:01;;;;;;;10.87;2.90;;;;;;;;;;769930;179;920082;-62
2022/02/06 11:43:42;;;;;;;6.43;2.70;;;;;;;;;;777336;180;919813;-62
2022/02/06 11:44:17;;;;;;;5.80;1.90;;;;;;;;;;771223;180;919716;-63
2022/02/06 11:46:50;;;;;;;3.77;2.03;;;;;;;;;;773115;178;917892;-63
2022/02/06 11:49:14;;;;;;;3.43;2.23;;;;;;;;;;770872;180;925840;-62
2022/02/06 11:51:46;;;;;;;6.80;2.47;;;;;;;;;;780219;177;918921;-63
2022/02/06 11:54:18;;;;;;;5.57;2.50;;;;;;;;;;771822;180;919813;-63
2022/02/06 11:56:44;;;;;;;3.73;2.10;;;;;;;;;;771756;178;918522;-62
2022/02/06 11:59:10;;;;;;;5.62;2.45;;;;;;;;;;771315;180;1020812;-63
2022/02/06 12:01:36;;;;;;;5.50;2.93;;;;;;;;;;776974;180;918611;-63
2022/02/06 12:04:02;;;;;;;4.77;2.23;;;;;;;;;;763055;180;1022503;-63
2022/02/06 12:06:31;;;;;;;6.43;2.57;;;;;;;;;;766616;181;953999;-61
2022/02/06 12:09:13;;;;;;;7.97;2.57;;;;;;;;;;773569;180;919700;-64
2022/02/06 12:11:39;;;;;;;7.50;2.53;;;;;;;;;;776648;179;918821;-62
2022/02/06 12:14:20;;;;;;;10.87;2.17;;;;;;;;;;775461;180;646933;-62
2022/02/06 12:16:56;;;;;;;3.00;1.60;;;;;;;;;;774122;180;628099;-63
2022/02/06 12:19:25;;;;;;;8.40;2.80;;;;;;;;;;775992;180;619684;-62
2022/02/06 12:21:51;;;;;;;3.43;2.03;;;;;;;;;;773983;179;638701;-62
2022/02/06 12:24:35;;;;;;;5.33;2.33;;;;;;;;;;774512;180;918053;-62
2022/02/06 12:27:06;;;;;;;3.00;1.67;;;;;;;;;;770969;180;629554;-62
2022/02/06 12:29:32;;;;;;;6.77;2.23;;;;;;;;;;767498;180;918823;-63
2022/02/06 12:32:00;;;;;;;6.80;2.87;;;;;;;;;;768081;179;628371;-63
2022/02/06 12:34:40;;;;;;;5.07;2.40;;;;;;;;;;775756;179;635657;-62
2022/02/06 12:39:27;;;;;;;3.60;1.90;;;;;;;;;;771194;179;613439;-63
2022/02/06 12:41:54;;;;;;;3.40;1.93;;;;;;;;;;769837;179;918434;-63
2022/02/06 12:44:19;;;;;;;6.90;2.45;;;;;;;;;;770301;177;919350;-62
2022/02/06 12:46:45;;;;;;;9.03;2.60;;;;;;;;;;778530;180;919488;-62
2022/02/06 12:49:10;;;;;;;6.20;2.27;;;;;;;;;;774320;180;918781;-63
2022/02/06 12:51:36;;;;;;;5.40;2.67;;;;;;;;;;772120;180;919515;-61
2022/02/06 12:54:07;;;;;;;6.68;3.45;;;;;;;;;;778778;180;918279;-61
2022/02/06 12:56:33;;;;;;;5.37;2.50;;;;;;;;;;779945;180;878081;-63
2022/02/06 12:58:58;;;;;;;3.07;2.03;;;;;;;;;;777047;177;627072;-67
2022/02/06 13:01:29;;;;;;;4.00;2.63;;;;;;;;;;766583;178;915561;-61
2022/02/06 13:03:56;;;;;;;6.13;2.20;;;;;;;;;;767158;181;913990;-62
2022/02/06 13:06:22;;;;;;;8.87;2.40;;;;;;;;;;774503;180;811685;-62
2022/02/06 13:08:47;;;;;;;6.83;2.80;;;;;;;;;;772942;180;919359;-62
2022/02/06 13:11:18;;;;;;;4.07;2.30;;;;;;;;;;772765;180;918620;-62
2022/02/06 13:13:47;;;;;;;7.30;2.33;;;;;;;;;;775274;180;918388;-62
2022/02/06 13:16:34;;;;;;;5.20;2.10;;;;;;;;;;768962;180;918495;-61
2022/02/06 13:20:00;;;;;;;4.47;2.30;;;;;;;;;;768731;181;921771;-62
2022/02/06 13:21:35;;;;;;;2.92;1.60;;;;;;;;;;765806;180;918670;-62
2022/02/06 13:24:11;;;;;;;6.50;1.70;;;;;;;;;;772365;180;914714;-61
2022/02/06 13:29:09;;;;;;;11.73;2.30;;;;;;;;;;769782;179;817045;-60
2022/02/06 13:31:42;;;;;;;6.00;2.10;;;;;;;;;;771508;179;914735;-63
2022/02/06 13:34:29;;;;;;;3.77;2.10;;;;;;;;;;771623;179;915424;-62
2022/02/06 13:36:55;;;;;;;14.90;2.10;;;;;;;;;;770339;180;919108;-61
2022/02/06 13:39:25;;;;;;;5.53;2.27;;;;;;;;;;771494;179;920329;-62
2022/02/06 13:41:43;;;;;;;3.80;1.90;;;;;;;;;;776313;180;884848;-62
2022/02/06 13:44:13;;;;;;;4.07;2.07;;;;;;;;;;771048;180;989504;-61
2022/02/06 13:46:40;;;;;;;4.33;2.13;;;;;;;;;;771419;179;919751;-62
2022/02/06 13:49:06;;;;;;;2.70;1.90;;;;;;;;;;775019;177;902142;-61
2022/02/06 13:51:35;;;;;;;10.03;3.40;;;;;;;;;;780309;180;921502;-61
2022/02/06 13:53:57;;;;;;;5.17;2.23;;;;;;;;;;773154;179;917950;-61
2022/02/06 13:56:23;;;;;;;6.10;2.13;;;;;;;;;;776393;180;615027;-62
2022/02/06 13:58:55;;;;;;;4.03;1.77;;;;;;;;;;777977;180;919000;-61
2022/02/06 14:01:21;;;;;;;3.10;1.50;;;;;;;;;;772700;177;919801;-62
2022/02/06 14:03:46;;;;;;;6.10;2.07;;;;;;;;;;759202;181;919292;-62
2022/02/06 14:06:16;;;;;;;4.90;1.90;;;;;;;;;;770327;178;917945;-61
2022/02/06 14:08:56;;;;;;;4.43;2.23;;;;;;;;;;780902;180;919389;-64
2022/02/06 14:11:28;;;;;;;2.27;1.50;;;;;;;;;;778539;180;919684;-62
2022/02/06 14:13:48;;;;;;;2.60;1.40;;;;;;;;;;772079;180;919095;-61
2022/02/06 14:16:13;;;;;;;13.70;2.93;;;;;;;;;;771136;180;919817;-62
2022/02/06 14:18:45;;;;;;;3.53;1.80;;;;;;;;;;777673;180;919265;-62
2022/02/06 14:21:11;;;;;;;6.80;1.70;;;;;;;;;;773361;178;919461;-62
2022/02/06 14:23:37;;;;;;;4.43;1.80;;;;;;;;;;769801;180;919265;-62
2022/02/06 14:26:08;;;;;;;6.82;1.90;;;;;;;;;;769760;180;918322;-62
2022/02/06 14:28:36;;;;;;;5.30;1.97;;;;;;;;;;773049;180;913766;-62
2022/02/06 14:31:00;;;;;;;2.40;1.40;;;;;;;;;;771877;178;916253;-62
2022/02/06 14:33:26;;;;;;;2.50;1.60;;;;;;;;;;771393;178;916677;-62
2022/02/06 14:35:55;;;;;;;9.13;1.67;;;;;;;;;;775004;180;917666;-63
2022/02/06 14:38:26;;;;;;;6.30;1.80;;;;;;;;;;772505;180;919273;-63
2022/02/06 14:40:53;;;;;;;4.10;2.00;;;;;;;;;;771846;178;919425;-62
2022/02/06 14:43:15;;;;;;;11.90;2.07;;;;;;;;;;772112;179;919649;-63
2022/02/06 14:45:45;;;;;;;6.80;2.03;;;;;;;;;;777583;180;919893;-63
2022/02/06 14:48:10;;;;;;;6.03;1.50;;;;;;;;;;771236;180;918455;-62
2022/02/06 14:50:36;;;;;;;4.73;1.57;;;;;;;;;;773025;180;921741;-62
2022/02/06 14:53:02;;;;;;;4.53;1.73;;;;;;;;;;776391;180;919338;-62
2022/02/06 14:55:28;;;;;;;8.30;2.80;;;;;;;;;;768224;180;920838;-63
2022/02/06 14:57:54;;;;;;;5.37;2.03;;;;;;;;;;772618;179;927620;-62
2022/02/06 15:00:19;;;;;;;6.67;2.17;;;;;;;;;;773268;180;921914;-62
2022/02/06 15:02:45;;;;;;;3.97;1.83;;;;;;;;;;776598;180;919283;-63
2022/02/06 15:05:11;;;;;;;3.40;1.83;;;;;;;;;;772254;177;918574;-62
2022/02/06 15:07:37;;;;;;;4.53;1.97;;;;;;;;;;772492;180;920013;-62
2022/02/06 15:10:03;;;;;;;2.70;1.57;;;;;;;;;;777629;179;918234;-62
2022/02/06 15:12:29;;;;;;;6.13;2.00;;;;;;;;;;772844;177;919207;-62
2022/02/06 15:14:56;;;;;;;3.43;1.60;;;;;;;;;;772165;180;918774;-63
2022/02/06 15:17:22;;;;;;;3.60;2.07;;;;;;;;;;778331;179;919127;-63
2022/02/06 15:19:46;;;;;;;5.50;1.40;;;;;;;;;;772535;180;916562;-65
2022/02/06 15:22:12;;;;;;;3.87;1.58;;;;;;;;;;771766;179;1010645;-64
2022/02/06 15:24:38;;;;;;;4.67;2.03;;;;;;;;;;771364;180;1021785;-62
2022/02/06 15:27:04;;;;;;;2.83;1.40;;;;;;;;;;774967;180;936594;-63
2022/02/06 15:29:30;;;;;;;3.95;1.00;;;;;;;;;;771131;180;916479;-63
2022/02/06 15:31:56;;;;;;;4.50;1.70;;;;;;;;;;771006;180;919405;-63
2022/02/06 15:34:22;;;;;;;4.70;1.47;;;;;;;;;;775612;180;916091;-64
2022/02/06 15:36:51;;;;;;;2.30;0.93;;;;;;;;;;771290;178;917632;-63
2022/02/06 15:39:23;;;;;;;4.27;1.60;;;;;;;;;;771652;178;920908;-65
2022/02/06 15:41:43;;;;;;;2.70;1.60;;;;;;;;;;774832;178;943927;-64
2022/02/06 15:44:09;;;;;;;3.33;1.30;;;;;;;;;;773039;180;906166;-64
2022/02/06 15:46:35;;;;;;;10.03;1.40;;;;;;;;;;769444;179;920053;-64
2022/02/06 15:49:01;;;;;;;6.37;2.07;;;;;;;;;;770512;180;918456;-64
2022/02/06 15:51:27;;;;;;;3.33;1.73;;;;;;;;;;775552;179;920072;-65
2022/02/06 15:53:53;;;;;;;3.30;1.03;;;;;;;;;;769860;180;912815;-64
2022/02/06 15:56:19;;;;;;;4.60;1.83;;;;;;;;;;771817;177;865133;-62